Time;durP1;ratioP1;P1;durP2;ratioP2;P2;SDS_P1;SDS_P2;PMS_P1;PMS_P2;Temp;Humidity;BMP_temperature;BMP_pressure;BME280_temperature;BME280_humidity;BME280_pressure;Samples;Min_cycle;Max_cycle;Signal;HPM_P1;HPM_P2
2022/08/23 02:09:36;;;;;;;15.60;7.03;;;;;;;;;;5114299;27;20047;-69
2022/08/23 02:12:02;;;;;;;9.55;6.57;;;;;;;;;;4969702;28;20059;-72
2022/08/23 02:14:29;;;;;;;9.15;6.32;;;;;;;;;;4969508;28;20060;-72
2022/08/23 02:16:56;;;;;;;8.05;6.68;;;;;;;;;;4969242;28;20949;-72
2022/08/23 02:19:31;;;;;;;8.85;6.35;;;;;;;;;;4969234;28;20058;-72
2022/08/23 02:21:57;;;;;;;8.15;6.10;;;;;;;;;;4969719;28;20065;-72
2022/08/23 02:24:24;;;;;;;8.88;6.80;;;;;;;;;;4969927;28;20059;-72
2022/08/23 02:26:51;;;;;;;9.75;6.10;;;;;;;;;;4967864;28;20059;-72
2022/08/23 02:29:23;;;;;;;9.32;6.63;;;;;;;;;;4969600;28;20063;-72
2022/08/23 02:31:49;;;;;;;8.13;6.80;;;;;;;;;;4984004;28;20090;-71
2022/08/23 02:34:16;;;;;;;10.63;7.90;;;;;;;;;;4954063;28;20062;-72
2022/08/23 02:36:43;;;;;;;11.95;6.80;;;;;;;;;;4968216;28;20529;-72
2022/08/23 02:39:10;;;;;;;11.60;6.60;;;;;;;;;;4970156;28;20055;-73
2022/08/23 02:41:37;;;;;;;11.07;7.70;;;;;;;;;;4968649;28;20063;-72
2022/08/23 02:44:04;;;;;;;12.95;7.43;;;;;;;;;;4966885;28;20066;-72
2022/08/23 02:46:30;;;;;;;8.93;7.20;;;;;;;;;;4969682;28;20067;-73
2022/08/23 02:48:56;;;;;;;11.35;6.82;;;;;;;;;;4968455;28;20073;-72
2022/08/23 02:51:23;;;;;;;11.25;6.80;;;;;;;;;;4983018;28;20412;-73
2022/08/23 02:53:49;;;;;;;9.27;6.72;;;;;;;;;;4968530;28;20626;-73
2022/08/23 02:56:16;;;;;;;9.07;6.70;;;;;;;;;;4969587;28;20063;-73
2022/08/23 02:58:47;;;;;;;8.85;7.60;;;;;;;;;;4968871;28;20079;-72
2022/08/23 03:01:21;;;;;;;11.38;7.50;;;;;;;;;;4970754;28;20059;-73
2022/08/23 03:03:47;;;;;;;8.65;7.03;;;;;;;;;;4956151;28;20056;-72
2022/08/23 03:06:15;;;;;;;11.27;6.85;;;;;;;;;;4970086;28;20059;-72
2022/08/23 03:08:51;;;;;;;9.75;7.40;;;;;;;;;;4968641;28;20074;-73
2022/08/23 03:11:20;;;;;;;8.55;7.15;;;;;;;;;;5000164;28;20407;-72
2022/08/23 03:13:47;;;;;;;9.00;7.90;;;;;;;;;;5010934;28;20054;-72
2022/08/23 03:16:13;;;;;;;11.60;7.50;;;;;;;;;;5011230;28;20058;-72
2022/08/23 03:18:40;;;;;;;11.27;7.97;;;;;;;;;;5007546;28;20058;-73
2022/08/23 03:21:07;;;;;;;10.20;7.75;;;;;;;;;;5000678;28;20064;-73
2022/08/23 03:23:34;;;;;;;13.35;8.35;;;;;;;;;;5011474;28;20072;-73
2022/08/23 03:26:01;;;;;;;10.88;7.65;;;;;;;;;;5012024;28;20058;-73
2022/08/23 03:28:28;;;;;;;11.48;7.80;;;;;;;;;;5012239;28;20058;-73
2022/08/23 03:30:55;;;;;;;10.38;7.93;;;;;;;;;;5010633;28;20058;-74
2022/08/23 03:33:22;;;;;;;11.07;8.13;;;;;;;;;;5024213;28;20149;-73
2022/08/23 03:35:48;;;;;;;10.07;7.30;;;;;;;;;;5011888;28;20059;-73
2022/08/23 03:38:15;;;;;;;13.40;7.93;;;;;;;;;;5011718;28;20054;-74
2022/08/23 03:40:41;;;;;;;9.82;8.20;;;;;;;;;;5010795;28;20445;-73
2022/08/23 03:43:08;;;;;;;9.85;7.07;;;;;;;;;;5008392;28;20058;-72
2022/08/23 03:45:34;;;;;;;9.05;7.05;;;;;;;;;;5009405;28;20050;-72
2022/08/23 03:48:00;;;;;;;9.63;7.78;;;;;;;;;;5020229;28;20525;-73
2022/08/23 03:50:27;;;;;;;9.38;7.35;;;;;;;;;;5011267;28;20050;-73
2022/08/23 03:52:54;;;;;;;12.82;7.18;;;;;;;;;;5010267;28;20058;-72
2022/08/23 03:55:20;;;;;;;10.90;7.22;;;;;;;;;;5011289;28;20062;-73
2022/08/23 03:57:47;;;;;;;8.27;6.65;;;;;;;;;;5011070;28;20051;-72
2022/08/23 04:00:14;;;;;;;12.68;7.78;;;;;;;;;;5010344;28;20502;-72
2022/08/23 04:02:46;;;;;;;8.82;7.57;;;;;;;;;;5011279;28;20058;-72
2022/08/23 04:05:12;;;;;;;11.05;7.15;;;;;;;;;;5010828;28;20054;-72
2022/08/23 04:07:39;;;;;;;10.02;7.13;;;;;;;;;;5017402;28;20062;-72
2022/08/23 04:10:06;;;;;;;8.57;6.35;;;;;;;;;;5010912;28;20069;-73
2022/08/23 04:12:32;;;;;;;10.18;7.35;;;;;;;;;;5011620;28;20062;-72
2022/08/23 04:14:59;;;;;;;9.10;7.15;;;;;;;;;;5010937;28;20059;-72
2022/08/23 04:17:27;;;;;;;14.07;6.97;;;;;;;;;;5010799;28;20121;-73
2022/08/23 04:19:58;;;;;;;12.32;7.10;;;;;;;;;;5010670;28;20062;-72
2022/08/23 04:22:24;;;;;;;9.80;6.70;;;;;;;;;;5014859;28;20072;-71
2022/08/23 04:24:50;;;;;;;8.07;6.32;;;;;;;;;;5009100;28;20065;-71
2022/08/23 04:27:17;;;;;;;8.63;6.60;;;;;;;;;;5007118;28;20062;-72
2022/08/23 04:29:43;;;;;;;9.10;6.20;;;;;;;;;;5011499;28;20062;-71
2022/08/23 04:32:10;;;;;;;9.85;6.47;;;;;;;;;;5011697;28;20442;-71
2022/08/23 04:34:39;;;;;;;7.68;6.13;;;;;;;;;;4993148;28;20058;-71
2022/08/23 04:37:05;;;;;;;11.13;6.20;;;;;;;;;;5010756;28;20585;-71
2022/08/23 04:42:16;;;;;;;9.50;6.22;;;;;;;;;;5011333;28;20058;-71
2022/08/23 04:42:22;;;;;;;9.38;6.25;;;;;;;;;;5006820;28;20149;-72
2022/08/23 04:44:48;;;;;;;7.60;6.40;;;;;;;;;;5013467;28;20057;-73
2022/08/23 04:47:15;;;;;;;8.60;6.55;;;;;;;;;;5029750;28;20064;-71
2022/08/23 04:49:42;;;;;;;9.80;6.10;;;;;;;;;;5028451;28;20437;-71
2022/08/23 04:52:08;;;;;;;9.50;6.43;;;;;;;;;;5011240;28;20058;-71
2022/08/23 04:54:34;;;;;;;6.93;6.20;;;;;;;;;;5001274;28;20062;-71
2022/08/23 04:57:01;;;;;;;6.43;5.75;;;;;;;;;;4991222;28;20062;-71
2022/08/23 04:59:28;;;;;;;8.43;6.50;;;;;;;;;;4986835;28;20058;-70
2022/08/23 05:01:54;;;;;;;6.57;5.60;;;;;;;;;;5010627;28;20066;-70
2022/08/23 05:04:20;;;;;;;6.45;5.32;;;;;;;;;;5010806;28;20068;-71
2022/08/23 05:06:47;;;;;;;8.20;6.28;;;;;;;;;;5010794;28;20592;-71
2022/08/23 05:09:13;;;;;;;7.40;6.28;;;;;;;;;;5006557;28;20068;-71
2022/08/23 05:11:45;;;;;;;7.45;5.72;;;;;;;;;;5007854;28;20090;-71
2022/08/23 05:14:11;;;;;;;6.93;5.80;;;;;;;;;;5009496;28;20058;-71
2022/08/23 05:16:38;;;;;;;7.85;6.15;;;;;;;;;;5010688;28;20508;-71
2022/08/23 05:19:04;;;;;;;13.65;7.47;;;;;;;;;;5011095;28;20059;-72
2022/08/23 05:21:31;;;;;;;8.50;6.57;;;;;;;;;;5010308;28;20066;-71
2022/08/23 05:23:58;;;;;;;12.80;6.45;;;;;;;;;;4992141;28;20486;-71
2022/08/23 05:26:27;;;;;;;9.77;6.72;;;;;;;;;;5010893;28;20161;-71
2022/08/23 05:28:53;;;;;;;8.70;5.72;;;;;;;;;;5005950;28;20069;-71
2022/08/23 05:31:21;;;;;;;11.40;6.38;;;;;;;;;;5010859;28;20101;-71
2022/08/23 05:33:47;;;;;;;12.02;6.80;;;;;;;;;;4988300;28;20546;-71
2022/08/23 05:36:15;;;;;;;11.65;6.97;;;;;;;;;;5008836;28;20057;-71
2022/08/23 05:38:42;;;;;;;9.32;6.47;;;;;;;;;;5009943;28;20058;-71
2022/08/23 05:41:09;;;;;;;10.57;6.38;;;;;;;;;;5007998;28;20069;-71
2022/08/23 05:43:35;;;;;;;7.22;6.53;;;;;;;;;;5008628;28;20054;-72
2022/08/23 05:46:04;;;;;;;9.65;6.82;;;;;;;;;;5017008;28;20105;-65
2022/08/23 05:48:32;;;;;;;11.82;6.15;;;;;;;;;;5011568;28;20058;-67
2022/08/23 05:51:12;;;;;;;11.18;6.18;;;;;;;;;;5002980;28;20537;-67
2022/08/23 05:53:39;;;;;;;10.95;7.18;;;;;;;;;;4991540;28;20062;-67
2022/08/23 05:56:14;;;;;;;10.07;6.82;;;;;;;;;;4997742;28;20094;-66
2022/08/23 05:58:41;;;;;;;7.32;6.43;;;;;;;;;;5009614;28;20503;-67
2022/08/23 06:01:08;;;;;;;7.43;6.15;;;;;;;;;;5008911;28;20058;-66
2022/08/23 06:03:34;;;;;;;15.07;6.88;;;;;;;;;;5006415;28;20222;-68
2022/08/23 06:06:01;;;;;;;13.40;6.90;;;;;;;;;;5008945;28;20062;-66
2022/08/23 06:08:27;;;;;;;11.73;6.43;;;;;;;;;;5004574;28;20062;-66
2022/08/23 06:11:08;;;;;;;10.48;6.18;;;;;;;;;;5009128;28;20426;-65
2022/08/23 06:13:37;;;;;;;11.10;7.28;;;;;;;;;;5009521;28;20058;-67
2022/08/23 06:16:04;;;;;;;8.57;6.43;;;;;;;;;;5007544;28;20058;-66
2022/08/23 06:18:40;;;;;;;8.07;6.30;;;;;;;;;;5007945;28;20105;-65
2022/08/23 06:21:08;;;;;;;12.55;7.32;;;;;;;;;;5010749;28;20058;-66
2022/08/23 06:23:35;;;;;;;14.57;6.40;;;;;;;;;;5009293;28;20055;-65
2022/08/23 06:26:12;;;;;;;18.83;8.48;;;;;;;;;;5009426;28;20063;-65
2022/08/23 06:28:39;;;;;;;16.50;9.48;;;;;;;;;;5021853;28;20065;-66
2022/08/23 06:31:44;;;;;;;16.73;9.30;;;;;;;;;;5006254;28;20062;-65
2022/08/23 06:34:03;;;;;;;17.65;7.70;;;;;;;;;;5010140;28;20054;-66
2022/08/23 06:36:29;;;;;;;10.55;7.60;;;;;;;;;;5002103;28;20164;-65
2022/08/23 06:38:56;;;;;;;17.75;8.57;;;;;;;;;;5007176;28;20072;-65
2022/08/23 06:41:22;;;;;;;15.32;8.82;;;;;;;;;;5010108;28;20054;-65
2022/08/23 06:43:49;;;;;;;15.77;8.15;;;;;;;;;;5010431;28;20065;-64
2022/08/23 06:46:17;;;;;;;17.98;8.82;;;;;;;;;;5011531;28;20502;-63
2022/08/23 06:48:44;;;;;;;12.20;8.18;;;;;;;;;;5012232;28;20105;-68
2022/08/23 06:51:21;;;;;;;13.07;8.10;;;;;;;;;;5016726;28;20061;-63
2022/08/23 06:53:48;;;;;;;11.27;8.52;;;;;;;;;;5019710;28;20069;-65
2022/08/23 06:56:15;;;;;;;10.80;7.70;;;;;;;;;;5013007;28;20434;-63
2022/08/23 06:58:41;;;;;;;10.68;9.00;;;;;;;;;;5013922;28;20061;-66
2022/08/23 07:01:26;;;;;;;10.55;7.88;;;;;;;;;;5015014;28;20058;-66
2022/08/23 07:04:12;;;;;;;14.65;8.93;;;;;;;;;;4994295;28;20162;-65
2022/08/23 07:06:39;;;;;;;12.30;8.40;;;;;;;;;;5003785;28;20058;-65
2022/08/23 07:09:06;;;;;;;11.32;8.48;;;;;;;;;;5018786;28;20064;-65
2022/08/23 07:11:33;;;;;;;12.93;8.70;;;;;;;;;;5011233;28;20069;-65
2022/08/23 07:14:01;;;;;;;11.30;8.25;;;;;;;;;;5013478;28;20524;-65
2022/08/23 07:16:35;;;;;;;13.52;8.95;;;;;;;;;;4996121;28;20064;-65
2022/08/23 07:19:02;;;;;;;12.68;8.50;;;;;;;;;;5013719;28;20141;-65
2022/08/23 07:21:28;;;;;;;9.90;7.40;;;;;;;;;;5013942;28;20084;-64
2022/08/23 07:23:55;;;;;;;18.05;8.15;;;;;;;;;;5025338;28;20502;-64
2022/08/23 07:26:21;;;;;;;14.45;9.27;;;;;;;;;;5014060;28;20069;-65
2022/08/23 07:28:48;;;;;;;10.77;8.45;;;;;;;;;;5019714;28;20065;-65
2022/08/23 07:31:17;;;;;;;15.52;8.20;;;;;;;;;;5013993;28;20060;-65
2022/08/23 07:33:43;;;;;;;11.70;8.13;;;;;;;;;;5013039;28;20061;-67
2022/08/23 07:36:12;;;;;;;11.40;8.80;;;;;;;;;;5014124;28;20069;-65
2022/08/23 07:38:39;;;;;;;17.02;9.40;;;;;;;;;;5021095;28;20521;-65
2022/08/23 07:41:05;;;;;;;13.55;8.57;;;;;;;;;;5012823;28;20054;-66
2022/08/23 07:43:32;;;;;;;13.57;7.80;;;;;;;;;;5013296;28;20524;-65
2022/08/23 07:45:59;;;;;;;12.38;9.18;;;;;;;;;;4995747;28;20134;-66
2022/08/23 07:48:26;;;;;;;10.07;8.85;;;;;;;;;;5032970;28;20058;-65
2022/08/23 07:51:13;;;;;;;13.43;9.05;;;;;;;;;;5032032;28;20065;-64
2022/08/23 07:53:39;;;;;;;16.90;9.32;;;;;;;;;;5013051;28;20581;-65
2022/08/23 07:56:12;;;;;;;12.52;8.88;;;;;;;;;;5009056;28;20066;-66
2022/08/23 07:58:38;;;;;;;15.70;8.85;;;;;;;;;;5013394;28;20429;-66
2022/08/23 08:01:14;;;;;;;14.55;8.50;;;;;;;;;;5012969;28;20062;-66
2022/08/23 08:03:42;;;;;;;10.65;8.18;;;;;;;;;;5012996;28;20070;-66
2022/08/23 08:06:11;;;;;;;16.27;8.68;;;;;;;;;;5012014;28;20054;-66
2022/08/23 08:08:39;;;;;;;10.55;8.85;;;;;;;;;;5013671;28;20065;-66
2022/08/23 08:11:10;;;;;;;13.75;9.77;;;;;;;;;;5012508;28;20062;-67
2022/08/23 08:13:37;;;;;;;11.45;8.45;;;;;;;;;;5014128;28;20065;-66
2022/08/23 08:16:04;;;;;;;17.67;8.38;;;;;;;;;;5023490;28;20058;-66
2022/08/23 08:18:30;;;;;;;14.52;8.80;;;;;;;;;;5013411;28;20194;-66
2022/08/23 08:20:57;;;;;;;7.72;5.93;;;;;;;;;;5012832;28;20062;-65
2022/08/23 08:23:23;;;;;;;11.15;7.72;;;;;;;;;;5011929;28;20510;-64
2022/08/23 08:25:57;;;;;;;12.52;7.80;;;;;;;;;;5012875;28;20054;-65
2022/08/23 08:28:24;;;;;;;13.02;6.97;;;;;;;;;;5010703;28;20058;-65
2022/08/23 08:30:50;;;;;;;10.65;7.15;;;;;;;;;;5011900;28;20165;-65
2022/08/23 08:33:16;;;;;;;12.35;8.43;;;;;;;;;;5005571;28;20058;-65
2022/08/23 08:35:45;;;;;;;11.27;8.05;;;;;;;;;;5009060;28;20065;-65
2022/08/23 08:38:24;;;;;;;11.85;6.75;;;;;;;;;;5012933;28;20362;-65
2022/08/23 08:41:08;;;;;;;17.33;7.00;;;;;;;;;;5012576;28;20054;-69
2022/08/23 08:43:40;;;;;;;8.60;5.90;;;;;;;;;;5011967;28;20062;-68
2022/08/23 08:46:10;;;;;;;15.95;7.00;;;;;;;;;;5013337;28;20067;-65
2022/08/23 08:48:41;;;;;;;8.85;6.30;;;;;;;;;;5012319;28;20113;-67
2022/08/23 08:51:18;;;;;;;14.35;7.18;;;;;;;;;;5012536;28;20054;-68
2022/08/23 08:53:47;;;;;;;12.45;5.22;;;;;;;;;;5020118;28;20058;-65
2022/08/23 08:56:17;;;;;;;11.98;5.35;;;;;;;;;;5032492;28;20057;-65
2022/08/23 08:58:51;;;;;;;10.70;6.00;;;;;;;;;;5032372;28;20061;-65
2022/08/23 09:01:18;;;;;;;18.05;6.95;;;;;;;;;;5018118;28;20494;-65
2022/08/23 09:03:45;;;;;;;6.32;5.70;;;;;;;;;;5010944;28;20066;-65
2022/08/23 09:06:34;;;;;;;7.75;5.65;;;;;;;;;;5012938;28;20113;-65
2022/08/23 09:09:27;;;;;;;8.20;5.18;;;;;;;;;;5011298;28;20058;-64
2022/08/23 09:11:59;;;;;;;7.95;5.13;;;;;;;;;;5012755;28;20504;-65
2022/08/23 09:14:37;;;;;;;11.13;4.85;;;;;;;;;;5012835;28;20063;-65
2022/08/23 09:17:09;;;;;;;8.85;5.20;;;;;;;;;;5012021;28;20059;-63
2022/08/23 09:19:37;;;;;;;10.52;5.20;;;;;;;;;;5010449;28;20051;-65
2022/08/23 09:22:13;;;;;;;10.55;4.90;;;;;;;;;;5009662;28;21058;-64
2022/08/23 09:24:40;;;;;;;11.38;4.90;;;;;;;;;;5012089;28;20058;-63
2022/08/23 09:27:07;;;;;;;10.95;4.95;;;;;;;;;;5015389;28;20082;-63
2022/08/23 09:29:35;;;;;;;6.78;4.15;;;;;;;;;;5031892;28;20053;-64
2022/08/23 09:32:03;;;;;;;7.95;4.35;;;;;;;;;;5026695;28;20065;-63
2022/08/23 09:34:29;;;;;;;12.27;4.20;;;;;;;;;;5011287;28;20054;-63
2022/08/23 09:37:15;;;;;;;6.88;3.85;;;;;;;;;;5013170;28;20103;-65
2022/08/23 09:39:42;;;;;;;6.88;3.58;;;;;;;;;;5022265;28;20594;-66
2022/08/23 09:42:26;;;;;;;14.98;4.10;;;;;;;;;;5010687;28;20058;-63
2022/08/23 09:44:52;;;;;;;10.65;4.43;;;;;;;;;;5021726;28;20498;-65
2022/08/23 09:47:30;;;;;;;10.02;4.80;;;;;;;;;;5013120;28;20059;-64
2022/08/23 09:50:05;;;;;;;9.73;5.35;;;;;;;;;;5012108;28;20153;-64
2022/08/23 09:52:33;;;;;;;10.32;4.93;;;;;;;;;;5011785;28;20062;-66
2022/08/23 09:55:02;;;;;;;6.35;4.38;;;;;;;;;;5010133;28;20069;-67
2022/08/23 09:57:29;;;;;;;12.73;4.82;;;;;;;;;;5011974;28;20149;-65
2022/08/23 10:00:00;;;;;;;14.07;4.45;;;;;;;;;;5025046;28;20921;-64
2022/08/23 10:02:34;;;;;;;11.48;5.05;;;;;;;;;;5031274;28;20486;-64
2022/08/23 10:05:02;;;;;;;10.07;5.35;;;;;;;;;;5007463;28;20515;-64
2022/08/23 10:07:35;;;;;;;8.77;5.50;;;;;;;;;;5007418;28;20598;-67
2022/08/23 10:10:16;;;;;;;11.13;5.55;;;;;;;;;;5008952;28;20058;-66
2022/08/23 10:12:44;;;;;;;10.25;5.00;;;;;;;;;;5028864;28;20458;-68
2022/08/23 10:15:11;;;;;;;10.93;5.03;;;;;;;;;;5031997;28;20050;-66
2022/08/23 10:17:42;;;;;;;5.95;3.63;;;;;;;;;;5031402;28;20061;-67
2022/08/23 10:20:22;;;;;;;5.93;3.63;;;;;;;;;;5032148;28;20569;-67
2022/08/23 10:22:57;;;;;;;9.63;3.70;;;;;;;;;;5016695;28;20137;-67
2022/08/23 10:25:41;;;;;;;4.75;2.60;;;;;;;;;;5016221;28;20153;-67
2022/08/23 10:31:22;;;;;;;4.60;2.25;;;;;;;;;;5015088;28;20069;-67
2022/08/23 10:33:54;;;;;;;7.55;3.15;;;;;;;;;;5015994;28;20058;-68
2022/08/23 10:36:21;;;;;;;4.70;2.92;;;;;;;;;;5016054;28;20050;-68
2022/08/23 10:38:57;;;;;;;8.25;3.08;;;;;;;;;;5015429;28;20502;-69
2022/08/23 10:41:37;;;;;;;8.63;2.50;;;;;;;;;;5029459;28;20064;-66
2022/08/23 10:44:21;;;;;;;7.05;2.65;;;;;;;;;;5017150;28;20084;-68
2022/08/23 10:46:57;;;;;;;8.97;2.20;;;;;;;;;;5015319;28;20058;-69
2022/08/23 10:49:24;;;;;;;5.97;2.65;;;;;;;;;;5010942;28;20370;-75
2022/08/23 10:51:51;;;;;;;5.63;2.45;;;;;;;;;;5016250;28;20054;-76
2022/08/23 10:54:33;;;;;;;8.75;2.40;;;;;;;;;;5013911;28;20145;-76
2022/08/23 10:57:04;;;;;;;3.67;1.88;;;;;;;;;;5014489;28;20074;-78
2022/08/23 10:59:33;;;;;;;5.70;2.35;;;;;;;;;;5012814;28;22339;-71
2022/08/23 11:02:21;;;;;;;6.45;2.40;;;;;;;;;;5020407;28;20065;-72
2022/08/23 11:04:50;;;;;;;6.60;2.13;;;;;;;;;;5033462;28;20446;-71
2022/08/23 11:07:20;;;;;;;5.13;1.80;;;;;;;;;;5017119;28;20058;-70
2022/08/23 11:09:51;;;;;;;7.22;2.20;;;;;;;;;;5022931;28;20058;-72
2022/08/23 11:12:22;;;;;;;4.93;2.28;;;;;;;;;;5032827;28;20459;-73
2022/08/23 11:15:01;;;;;;;4.63;2.33;;;;;;;;;;5034194;28;20058;-73
2022/08/23 11:17:27;;;;;;;3.85;1.85;;;;;;;;;;5019572;28;20081;-72
2022/08/23 11:20:02;;;;;;;5.80;2.35;;;;;;;;;;5013138;28;20058;-72
2022/08/23 11:22:28;;;;;;;;;;;;;;;;;;5014685;28;20058;-70
2022/08/23 11:24:57;;;;;;;6.13;2.17;;;;;;;;;;5020649;28;46679;-72
2022/08/23 11:27:25;;;;;;;10.57;2.42;;;;;;;;;;5012249;28;20054;-70
2022/08/23 11:29:52;;;;;;;5.40;1.80;;;;;;;;;;5013832;28;20524;-71
2022/08/23 11:32:29;;;;;;;3.15;1.80;;;;;;;;;;5011638;28;20069;-73
2022/08/23 11:35:03;;;;;;;6.97;2.22;;;;;;;;;;5012279;28;20054;-75
2022/08/23 11:37:48;;;;;;;6.10;2.00;;;;;;;;;;5018348;28;20065;-72
2022/08/23 11:40:34;;;;;;;4.75;2.00;;;;;;;;;;5001333;28;20063;-72
2022/08/23 11:43:18;;;;;;;6.80;2.03;;;;;;;;;;5013448;28;20467;-72
2022/08/23 11:45:45;;;;;;;4.32;1.90;;;;;;;;;;5013310;28;20070;-71
2022/08/23 11:48:18;;;;;;;3.78;1.70;;;;;;;;;;5012174;28;20569;-72
2022/08/23 11:50:50;;;;;;;4.45;1.95;;;;;;;;;;5014361;28;20054;-72
2022/08/23 11:53:41;;;;;;;6.13;2.38;;;;;;;;;;5033261;28;20054;-70
2022/08/23 11:56:13;;;;;;;4.07;2.00;;;;;;;;;;5032930;28;20513;-72
2022/08/23 11:59:12;;;;;;;4.40;2.00;;;;;;;;;;5033318;28;20677;-70
2022/08/23 12:01:39;;;;;;;5.43;2.03;;;;;;;;;;4993114;28;20575;-71
2022/08/23 12:04:10;;;;;;;6.00;2.13;;;;;;;;;;5013080;28;20558;-72
2022/08/23 12:06:42;;;;;;;6.85;1.98;;;;;;;;;;5012276;28;20054;-71
2022/08/23 12:09:18;;;;;;;4.32;2.38;;;;;;;;;;5013102;28;20062;-72
2022/08/23 12:11:48;;;;;;;3.22;1.77;;;;;;;;;;5011826;28;20058;-75
2022/08/23 12:14:29;;;;;;;3.47;1.70;;;;;;;;;;5013114;28;20055;-74
2022/08/23 12:17:00;;;;;;;4.47;2.20;;;;;;;;;;5011470;28;20146;-74
2022/08/23 12:19:33;;;;;;;4.70;1.80;;;;;;;;;;5012528;28;20051;-75
2022/08/23 12:22:10;;;;;;;3.10;1.80;;;;;;;;;;5012138;28;20178;-73
2022/08/23 12:24:41;;;;;;;4.20;1.80;;;;;;;;;;5010236;28;20089;-74
2022/08/23 12:27:20;;;;;;;13.00;2.30;;;;;;;;;;5013063;28;20055;-73
2022/08/23 12:30:05;;;;;;;4.72;2.05;;;;;;;;;;5012613;28;20058;-73
2022/08/23 12:32:35;;;;;;;4.40;1.90;;;;;;;;;;5012621;28;20410;-73
2022/08/23 12:35:13;;;;;;;5.25;1.90;;;;;;;;;;5011093;28;20505;-73
2022/08/23 12:37:45;;;;;;;3.08;1.73;;;;;;;;;;5011746;28;20054;-71
2022/08/23 12:40:14;;;;;;;4.78;1.98;;;;;;;;;;5010297;28;20062;-73
2022/08/23 12:42:41;;;;;;;8.02;2.15;;;;;;;;;;5015138;28;20062;-73
2022/08/23 12:45:12;;;;;;;5.78;1.60;;;;;;;;;;5022039;28;20053;-72
2022/08/23 12:47:41;;;;;;;5.45;2.03;;;;;;;;;;5011766;28;20054;-74
2022/08/23 12:50:20;;;;;;;3.70;1.73;;;;;;;;;;5012336;28;20540;-74
2022/08/23 12:53:00;;;;;;;4.13;1.77;;;;;;;;;;5012003;28;20061;-73
2022/08/23 12:55:29;;;;;;;2.40;1.80;;;;;;;;;;5024600;28;20144;-73
2022/08/23 12:57:58;;;;;;;4.03;1.60;;;;;;;;;;5016926;28;20060;-73
2022/08/23 13:00:27;;;;;;;5.57;1.77;;;;;;;;;;5011813;28;20063;-73
2022/08/23 13:03:07;;;;;;;3.72;1.92;;;;;;;;;;5017337;28;20050;-73
2022/08/23 13:05:42;;;;;;;3.15;1.55;;;;;;;;;;5011918;28;20093;-76
2022/08/23 13:08:12;;;;;;;7.28;2.10;;;;;;;;;;5011458;28;20059;-74
2022/08/23 13:10:40;;;;;;;2.22;1.27;;;;;;;;;;4996861;28;20054;-74
2022/08/23 13:13:08;;;;;;;3.60;1.80;;;;;;;;;;5012084;28;20064;-75
2022/08/23 13:15:46;;;;;;;4.43;1.42;;;;;;;;;;5013949;28;20061;-74
2022/08/23 13:18:36;;;;;;;2.85;1.58;;;;;;;;;;4992337;28;20487;-74
2022/08/23 13:21:18;;;;;;;2.72;1.60;;;;;;;;;;5012454;28;20060;-75
2022/08/23 13:23:45;;;;;;;1.83;1.50;;;;;;;;;;5002856;28;20062;-75
2022/08/23 13:26:42;;;;;;;3.58;1.88;;;;;;;;;;5011958;28;20157;-73
2022/08/23 13:29:11;;;;;;;2.92;1.80;;;;;;;;;;5013563;28;20058;-75
2022/08/23 13:31:51;;;;;;;3.90;1.77;;;;;;;;;;5028686;28;20414;-74
2022/08/23 13:34:32;;;;;;;3.33;1.80;;;;;;;;;;5011941;28;20524;-75
2022/08/23 13:37:04;;;;;;;3.25;1.40;;;;;;;;;;5011688;28;20433;-75
2022/08/23 13:39:31;;;;;;;3.70;1.75;;;;;;;;;;5013116;28;20055;-74
2022/08/23 13:41:58;;;;;;;2.95;1.65;;;;;;;;;;5014543;28;20425;-76
2022/08/23 13:44:25;;;;;;;10.77;2.53;;;;;;;;;;5012294;28;20060;-75
2022/08/23 13:46:51;;;;;;;2.83;1.50;;;;;;;;;;5011938;28;20068;-76
2022/08/23 13:49:20;;;;;;;4.97;2.08;;;;;;;;;;5010941;28;20054;-74
2022/08/23 13:51:59;;;;;;;4.63;1.52;;;;;;;;;;5011537;28;20058;-77
2022/08/23 13:54:45;;;;;;;2.92;1.60;;;;;;;;;;4998012;28;20061;-77
2022/08/23 13:57:18;;;;;;;5.95;2.00;;;;;;;;;;5012336;28;20061;-71
2022/08/23 13:59:54;;;;;;;4.05;1.73;;;;;;;;;;5011579;28;20058;-75
2022/08/23 14:02:21;;;;;;;3.85;1.63;;;;;;;;;;5010271;28;20061;-75
2022/08/23 14:04:48;;;;;;;2.55;1.70;;;;;;;;;;5011317;28;20055;-76
2022/08/23 14:07:14;;;;;;;8.27;2.20;;;;;;;;;;5014006;28;20418;-76
2022/08/23 14:09:41;;;;;;;1.75;1.40;;;;;;;;;;5016675;28;20069;-76
2022/08/23 14:12:12;;;;;;;1.98;1.42;;;;;;;;;;5010336;28;20061;-76
2022/08/23 14:14:41;;;;;;;5.47;2.22;;;;;;;;;;5011497;28;20070;-77
2022/08/23 14:17:08;;;;;;;3.20;2.20;;;;;;;;;;5011864;28;20059;-77
2022/08/23 14:19:38;;;;;;;3.10;1.88;;;;;;;;;;5009709;28;20595;-72
2022/08/23 14:22:24;;;;;;;3.03;1.98;;;;;;;;;;5025149;28;20053;-74
2022/08/23 14:24:50;;;;;;;5.82;2.38;;;;;;;;;;5031363;28;20060;-75
2022/08/23 14:27:17;;;;;;;6.28;1.95;;;;;;;;;;5011164;28;20123;-77
2022/08/23 14:29:43;;;;;;;3.75;1.80;;;;;;;;;;5004858;28;20072;-77
2022/08/23 14:32:09;;;;;;;3.95;1.83;;;;;;;;;;4999398;28;20050;-77
2022/08/23 14:34:36;;;;;;;5.32;2.17;;;;;;;;;;5008124;28;20058;-75
2022/08/23 14:37:03;;;;;;;3.28;1.67;;;;;;;;;;5006810;28;20054;-73
2022/08/23 14:39:50;;;;;;;5.32;1.60;;;;;;;;;;5008968;28;20050;-75
2022/08/23 14:42:19;;;;;;;3.00;1.50;;;;;;;;;;5010703;28;20059;-76
2022/08/23 14:44:48;;;;;;;5.63;1.88;;;;;;;;;;5003522;28;20055;-76
2022/08/23 14:47:15;;;;;;;3.60;1.55;;;;;;;;;;5008972;28;20652;-72
2022/08/23 14:49:41;;;;;;;4.07;2.10;;;;;;;;;;5015509;28;20054;-75
2022/08/23 14:52:09;;;;;;;2.55;1.60;;;;;;;;;;5007582;28;20059;-71
2022/08/23 14:54:35;;;;;;;3.63;1.70;;;;;;;;;;5007279;28;20085;-74
2022/08/23 14:57:05;;;;;;;4.53;1.63;;;;;;;;;;5008263;28;20055;-74
2022/08/23 14:59:31;;;;;;;4.68;1.67;;;;;;;;;;4974870;28;20069;-74
2022/08/23 15:01:58;;;;;;;4.05;1.52;;;;;;;;;;4993395;28;20506;-71
2022/08/23 15:04:26;;;;;;;4.75;1.80;;;;;;;;;;4988230;28;20055;-72
2022/08/23 15:07:00;;;;;;;2.58;1.67;;;;;;;;;;4988560;28;20503;-73
2022/08/23 15:09:48;;;;;;;2.38;1.55;;;;;;;;;;4981058;28;20146;-73
2022/08/23 15:12:16;;;;;;;6.72;1.60;;;;;;;;;;4990355;28;20055;-75
2022/08/23 15:15:03;;;;;;;4.50;1.60;;;;;;;;;;4993376;28;20066;-76
2022/08/23 15:17:33;;;;;;;11.15;1.98;;;;;;;;;;4993147;28;20067;-73
2022/08/23 15:20:00;;;;;;;3.40;1.70;;;;;;;;;;4991961;28;20062;-73
2022/08/23 15:22:26;;;;;;;3.17;1.60;;;;;;;;;;4998454;28;20054;-73
2022/08/23 15:24:52;;;;;;;7.07;1.88;;;;;;;;;;4993427;28;20055;-75
2022/08/23 15:27:19;;;;;;;4.90;1.77;;;;;;;;;;4991951;28;20070;-73
2022/08/23 15:29:46;;;;;;;2.72;1.73;;;;;;;;;;4992997;28;20470;-74
2022/08/23 15:32:12;;;;;;;3.70;1.63;;;;;;;;;;4983387;28;20058;-73
2022/08/23 15:34:39;;;;;;;4.88;1.60;;;;;;;;;;4986285;28;20062;-73
2022/08/23 15:37:12;;;;;;;3.30;1.83;;;;;;;;;;4986664;28;20058;-74
2022/08/23 15:39:38;;;;;;;4.30;1.85;;;;;;;;;;4994387;28;20058;-74
2022/08/23 15:42:05;;;;;;;5.78;1.98;;;;;;;;;;4988477;28;20526;-73
2022/08/23 15:44:31;;;;;;;10.82;2.22;;;;;;;;;;4991687;28;20063;-78
2022/08/23 15:46:58;;;;;;;2.75;1.92;;;;;;;;;;5000836;28;20138;-77
2022/08/23 15:49:26;;;;;;;8.63;1.83;;;;;;;;;;4993494;28;20065;-76
2022/08/23 15:51:53;;;;;;;4.63;1.80;;;;;;;;;;4994781;28;20058;-76
2022/08/23 15:54:19;;;;;;;3.25;2.30;;;;;;;;;;4993084;28;20058;-76
2022/08/23 15:56:47;;;;;;;3.97;2.20;;;;;;;;;;4996986;28;20068;-78
2022/08/23 15:59:14;;;;;;;8.85;2.30;;;;;;;;;;4997065;28;20059;-79
2022/08/23 16:01:40;;;;;;;14.20;2.72;;;;;;;;;;4986363;28;20066;-77
2022/08/23 16:04:07;;;;;;;3.65;2.30;;;;;;;;;;4992446;28;20101;-75
2022/08/23 16:06:35;;;;;;;5.05;2.13;;;;;;;;;;5002544;28;20513;-77
2022/08/23 16:09:02;;;;;;;4.53;2.90;;;;;;;;;;4993988;28;20550;-77
2022/08/23 16:11:30;;;;;;;4.15;2.92;;;;;;;;;;4993097;28;20073;-75
2022/08/23 16:13:57;;;;;;;6.38;2.40;;;;;;;;;;4992964;28;20138;-75
2022/08/23 16:16:26;;;;;;;3.95;2.63;;;;;;;;;;4993040;28;20058;-76
2022/08/23 16:18:52;;;;;;;6.18;2.50;;;;;;;;;;4992476;28;20090;-75
2022/08/23 16:21:20;;;;;;;6.57;2.65;;;;;;;;;;4993461;28;20073;-75
2022/08/23 16:23:46;;;;;;;4.15;2.67;;;;;;;;;;4993275;28;20054;-75
2022/08/23 16:26:15;;;;;;;5.57;3.05;;;;;;;;;;4992822;28;20054;-76
2022/08/23 16:28:47;;;;;;;4.50;2.47;;;;;;;;;;4991610;28;20094;-76
2022/08/23 16:31:13;;;;;;;4.90;2.40;;;;;;;;;;4992936;28;20066;-78
2022/08/23 16:33:40;;;;;;;7.28;2.95;;;;;;;;;;4991493;28;20418;-77
2022/08/23 16:36:07;;;;;;;7.57;3.58;;;;;;;;;;4991858;28;20077;-76
2022/08/23 16:38:34;;;;;;;5.18;2.60;;;;;;;;;;4993063;28;20061;-77
2022/08/23 16:41:00;;;;;;;5.32;2.33;;;;;;;;;;4992942;28;20054;-76
2022/08/23 16:43:26;;;;;;;4.43;2.58;;;;;;;;;;4991195;28;20533;-78
2022/08/23 16:45:54;;;;;;;3.75;2.45;;;;;;;;;;4992931;28;20054;-75
2022/08/23 16:48:20;;;;;;;4.45;2.30;;;;;;;;;;4995912;28;20098;-76
2022/08/23 16:50:47;;;;;;;6.20;2.63;;;;;;;;;;4991207;28;20055;-77
2022/08/23 16:53:14;;;;;;;5.57;3.05;;;;;;;;;;4992371;28;20062;-74
2022/08/23 16:55:41;;;;;;;6.53;2.90;;;;;;;;;;4994786;28;20502;-75
2022/08/23 16:58:07;;;;;;;4.30;2.20;;;;;;;;;;4992295;28;20065;-75
2022/08/23 17:00:34;;;;;;;5.68;2.97;;;;;;;;;;4991449;28;20063;-74
2022/08/23 17:03:00;;;;;;;5.53;2.80;;;;;;;;;;5001190;28;20067;-75
2022/08/23 17:05:28;;;;;;;4.75;2.72;;;;;;;;;;4994935;28;20058;-75
2022/08/23 17:07:54;;;;;;;6.22;2.70;;;;;;;;;;4991800;28;20062;-76